sensor_id;sensor_type;location;lat;lon;timestamp;temperature;humidity
46634;DHT22;32362;49.986;8.026;2023-12-20T00:23:27;5.20;99.90
46634;DHT22;32362;49.986;8.026;2023-12-20T00:50:08;5.20;99.90
46634;DHT22;32362;49.986;8.026;2023-12-20T01:16:49;5.10;99.90
46634;DHT22;32362;49.986;8.026;2023-12-20T01:43:30;5.20;99.90
46634;DHT22;32362;49.986;8.026;2023-12-20T02:10:11;5.20;99.90
46634;DHT22;32362;49.986;8.026;2023-12-20T02:36:52;5.20;99.90
46634;DHT22;32362;49.986;8.026;2023-12-20T03:03:32;5.30;99.90
46634;DHT22;32362;49.986;8.026;2023-12-20T03:30:13;5.40;99.90
46634;DHT22;32362;49.986;8.026;2023-12-20T03:56:54;5.50;99.90
46634;DHT22;32362;49.986;8.026;2023-12-20T04:23:35;5.80;99.90
46634;DHT22;32362;49.986;8.026;2023-12-20T04:50:15;5.50;99.90
46634;DHT22;32362;49.986;8.026;2023-12-20T05:16:56;5.40;99.90
46634;DHT22;32362;49.986;8.026;2023-12-20T05:43:37;5.00;99.90
46634;DHT22;32362;49.986;8.026;2023-12-20T06:10:18;4.80;99.90
46634;DHT22;32362;49.986;8.026;2023-12-20T06:36:59;4.30;99.90
46634;DHT22;32362;49.986;8.026;2023-12-20T07:03:39;4.20;99.90
46634;DHT22;32362;49.986;8.026;2023-12-20T07:30:23;4.20;99.90
46634;DHT22;32362;49.986;8.026;2023-12-20T07:57:04;4.20;99.90
46634;DHT22;32362;49.986;8.026;2023-12-20T08:23:44;4.70;99.90
46634;DHT22;32362;49.986;8.026;2023-12-20T08:50:26;5.10;99.90
46634;DHT22;32362;49.986;8.026;2023-12-20T09:17:06;5.80;99.20
46634;DHT22;32362;49.986;8.026;2023-12-20T09:43:50;6.50;97.70
46634;DHT22;32362;49.986;8.026;2023-12-20T10:10:33;7.10;95.90
46634;DHT22;32362;49.986;8.026;2023-12-20T10:37:13;7.40;94.60
46634;DHT22;32362;49.986;8.026;2023-12-20T11:03:54;7.70;92.00
46634;DHT22;32362;49.986;8.026;2023-12-20T11:30:55;7.90;90.30
46634;DHT22;32362;49.986;8.026;2023-12-20T11:57:36;8.10;90.60
46634;DHT22;32362;49.986;8.026;2023-12-20T12:24:20;7.60;89.40
46634;DHT22;32362;49.986;8.026;2023-12-20T12:51:04;8.10;90.10
46634;DHT22;32362;49.986;8.026;2023-12-20T13:17:45;8.40;90.30
46634;DHT22;32362;49.986;8.026;2023-12-20T13:44:26;9.70;85.00
46634;DHT22;32362;49.986;8.026;2023-12-20T14:11:07;9.40;86.60
46634;DHT22;32362;49.986;8.026;2023-12-20T14:37:49;8.50;98.30
46634;DHT22;32362;49.986;8.026;2023-12-20T15:04:31;8.60;99.90
46634;DHT22;32362;49.986;8.026;2023-12-20T15:31:12;8.10;99.90
46634;DHT22;32362;49.986;8.026;2023-12-20T15:57:52;7.70;99.90
46634;DHT22;32362;49.986;8.026;2023-12-20T16:24:34;7.70;99.90
46634;DHT22;32362;49.986;8.026;2023-12-20T16:51:15;7.70;98.00
46634;DHT22;32362;49.986;8.026;2023-12-20T17:17:56;7.80;98.90
46634;DHT22;32362;49.986;8.026;2023-12-20T17:44:37;8.10;97.90
46634;DHT22;32362;49.986;8.026;2023-12-20T18:11:17;8.10;98.10
46634;DHT22;32362;49.986;8.026;2023-12-20T18:37:58;8.00;98.80
46634;DHT22;32362;49.986;8.026;2023-12-20T19:04:38;7.80;99.70
46634;DHT22;32362;49.986;8.026;2023-12-20T19:31:20;7.50;99.90
46634;DHT22;32362;49.986;8.026;2023-12-20T19:58:01;7.30;99.90
46634;DHT22;32362;49.986;8.026;2023-12-20T20:24:42;6.70;99.90
46634;DHT22;32362;49.986;8.026;2023-12-20T20:51:23;7.40;99.90
46634;DHT22;32362;49.986;8.026;2023-12-20T21:18:04;9.40;99.90
46634;DHT22;32362;49.986;8.026;2023-12-20T21:44:45;7.50;99.90
46634;DHT22;32362;49.986;8.026;2023-12-20T22:11:26;8.30;99.90
46634;DHT22;32362;49.986;8.026;2023-12-20T23:04:48;8.10;99.90
46634;DHT22;32362;49.986;8.026;2023-12-20T23:31:28;8.40;99.90
46634;DHT22;32362;49.986;8.026;2023-12-20T23:58:09;8.90;99.90
